sensor_id;sensor_type;location;lat;lon;timestamp;pressure;altitude;pressure_sealevel;temperature;humidity
40372;BME280;28564;53.346;-6.554;2022-11-04T00:01:41;99914.31;;;8.72;53.50
40372;BME280;28564;53.346;-6.554;2022-11-04T00:04:10;99924.66;;;8.72;53.26
40372;BME280;28564;53.346;-6.554;2022-11-04T00:06:38;99928.56;;;8.91;53.04
40372;BME280;28564;53.346;-6.554;2022-11-04T00:09:08;99924.75;;;8.81;52.98
40372;BME280;28564;53.346;-6.554;2022-11-04T00:11:36;99930.88;;;8.72;52.97
40372;BME280;28564;53.346;-6.554;2022-11-04T00:14:05;99943.46;;;8.60;52.94
40372;BME280;28564;53.346;-6.554;2022-11-04T00:16:33;99951.50;;;8.52;53.00
40372;BME280;28564;53.346;-6.554;2022-11-04T00:19:01;99959.57;;;8.44;52.91
40372;BME280;28564;53.346;-6.554;2022-11-04T00:21:28;99965.44;;;8.34;52.86
40372;BME280;28564;53.346;-6.554;2022-11-04T00:23:56;99964.13;;;8.49;52.81
40372;BME280;28564;53.346;-6.554;2022-11-04T00:26:23;99973.29;;;8.42;52.91
40372;BME280;28564;53.346;-6.554;2022-11-04T00:28:51;99978.42;;;8.37;52.96
40372;BME280;28564;53.346;-6.554;2022-11-04T00:31:18;99980.41;;;8.06;53.00
40372;BME280;28564;53.346;-6.554;2022-11-04T00:33:46;99981.63;;;8.23;53.02
40372;BME280;28564;53.346;-6.554;2022-11-04T00:36:13;99991.00;;;8.18;53.04
40372;BME280;28564;53.346;-6.554;2022-11-04T00:38:41;99987.94;;;8.14;53.13
40372;BME280;28564;53.346;-6.554;2022-11-04T00:41:08;99984.60;;;8.09;53.19
40372;BME280;28564;53.346;-6.554;2022-11-04T00:43:35;99995.55;;;8.00;53.19
40372;BME280;28564;53.346;-6.554;2022-11-04T00:46:03;100004.50;;;7.92;53.29
40372;BME280;28564;53.346;-6.554;2022-11-04T00:48:30;100006.56;;;7.82;53.41
40372;BME280;28564;53.346;-6.554;2022-11-04T00:50:57;100013.16;;;7.76;53.37
40372;BME280;28564;53.346;-6.554;2022-11-04T00:53:24;100017.65;;;7.68;53.41
40372;BME280;28564;53.346;-6.554;2022-11-04T00:55:52;100022.04;;;7.84;53.56
40372;BME280;28564;53.346;-6.554;2022-11-04T00:58:19;100026.52;;;7.57;53.64
40372;BME280;28564;53.346;-6.554;2022-11-04T01:00:47;100028.86;;;7.75;53.72
40372;BME280;28564;53.346;-6.554;2022-11-04T01:03:14;100027.48;;;7.50;53.81
40372;BME280;28564;53.346;-6.554;2022-11-04T01:05:41;100027.61;;;7.44;53.83
40372;BME280;28564;53.346;-6.554;2022-11-04T01:08:08;100036.92;;;7.64;53.88
40372;BME280;28564;53.346;-6.554;2022-11-04T01:10:36;100047.28;;;7.61;53.89
40372;BME280;28564;53.346;-6.554;2022-11-04T01:13:03;100055.54;;;7.58;54.00
40372;BME280;28564;53.346;-6.554;2022-11-04T01:15:31;100062.81;;;7.55;54.01
40372;BME280;28564;53.346;-6.554;2022-11-04T01:17:58;100072.78;;;7.31;54.08
40372;BME280;28564;53.346;-6.554;2022-11-04T01:20:25;100077.10;;;7.52;54.09
40372;BME280;28564;53.346;-6.554;2022-11-04T01:22:52;100076.75;;;7.47;54.28
40372;BME280;28564;53.346;-6.554;2022-11-04T01:25:20;100082.85;;;7.46;54.27
40372;BME280;28564;53.346;-6.554;2022-11-04T01:27:48;100091.65;;;7.43;54.28
40372;BME280;28564;53.346;-6.554;2022-11-04T01:30:15;100100.50;;;7.20;54.45
40372;BME280;28564;53.346;-6.554;2022-11-04T01:32:42;100105.95;;;7.41;54.55
40372;BME280;28564;53.346;-6.554;2022-11-04T01:35:09;100113.67;;;7.64;54.73
40372;BME280;28564;53.346;-6.554;2022-11-04T01:37:37;100117.24;;;7.65;54.74
40372;BME280;28564;53.346;-6.554;2022-11-04T01:40:05;100115.12;;;7.39;54.75
40372;BME280;28564;53.346;-6.554;2022-11-04T01:42:32;100124.86;;;7.74;54.55
40372;BME280;28564;53.346;-6.554;2022-11-04T01:45:00;100140.62;;;7.51;54.41
40372;BME280;28564;53.346;-6.554;2022-11-04T01:47:31;100149.36;;;7.47;54.40
40372;BME280;28564;53.346;-6.554;2022-11-04T01:50:05;100156.72;;;7.44;54.47
40372;BME280;28564;53.346;-6.554;2022-11-04T01:52:38;100173.00;;;7.44;54.45
40372;BME280;28564;53.346;-6.554;2022-11-04T01:55:11;100180.15;;;7.43;54.37
40372;BME280;28564;53.346;-6.554;2022-11-04T01:57:41;100184.42;;;7.40;54.37
40372;BME280;28564;53.346;-6.554;2022-11-04T02:00:11;100192.70;;;7.12;54.59
40372;BME280;28564;53.346;-6.554;2022-11-04T02:02:47;100192.02;;;7.34;54.53
40372;BME280;28564;53.346;-6.554;2022-11-04T02:05:18;100187.30;;;7.32;54.63
40372;BME280;28564;53.346;-6.554;2022-11-04T02:07:48;100191.70;;;7.32;54.63
40372;BME280;28564;53.346;-6.554;2022-11-04T02:10:19;100200.91;;;7.59;54.62
40372;BME280;28564;53.346;-6.554;2022-11-04T02:12:46;100209.85;;;7.59;54.60
40372;BME280;28564;53.346;-6.554;2022-11-04T02:15:14;100213.36;;;7.57;54.69
40372;BME280;28564;53.346;-6.554;2022-11-04T02:17:54;100219.89;;;7.57;54.70
40372;BME280;28564;53.346;-6.554;2022-11-04T02:20:31;100221.23;;;7.30;54.67
40372;BME280;28564;53.346;-6.554;2022-11-04T02:23:21;100225.94;;;7.26;54.59
40372;BME280;28564;53.346;-6.554;2022-11-04T02:27:11;100231.21;;;7.26;54.43
40372;BME280;28564;53.346;-6.554;2022-11-04T02:29:49;100227.08;;;7.24;54.48
40372;BME280;28564;53.346;-6.554;2022-11-04T02:32:29;100226.67;;;7.54;54.42
40372;BME280;28564;53.346;-6.554;2022-11-04T02:35:02;100232.31;;;7.27;54.37
40372;BME280;28564;53.346;-6.554;2022-11-04T02:37:39;100234.35;;;7.24;54.19
40372;BME280;28564;53.346;-6.554;2022-11-04T02:40:18;100244.51;;;7.20;54.24
40372;BME280;28564;53.346;-6.554;2022-11-04T02:42:54;100253.68;;;7.16;54.32
40372;BME280;28564;53.346;-6.554;2022-11-04T02:45:29;100257.77;;;7.13;54.28
40372;BME280;28564;53.346;-6.554;2022-11-04T02:48:04;100261.40;;;7.37;54.34
40372;BME280;28564;53.346;-6.554;2022-11-04T02:50:35;100268.20;;;7.34;54.35
40372;BME280;28564;53.346;-6.554;2022-11-04T02:53:11;100279.67;;;7.31;54.50
40372;BME280;28564;53.346;-6.554;2022-11-04T02:55:43;100288.15;;;7.27;54.76
40372;BME280;28564;53.346;-6.554;2022-11-04T02:58:14;100291.10;;;6.95;54.99
40372;BME280;28564;53.346;-6.554;2022-11-04T03:00:45;100297.96;;;6.92;55.07
40372;BME280;28564;53.346;-6.554;2022-11-04T03:03:16;100297.56;;;7.16;55.21
40372;BME280;28564;53.346;-6.554;2022-11-04T03:05:48;100296.52;;;7.16;55.14
40372;BME280;28564;53.346;-6.554;2022-11-04T03:08:19;100298.22;;;6.88;55.13
40372;BME280;28564;53.346;-6.554;2022-11-04T03:10:51;100302.04;;;7.14;54.94
40372;BME280;28564;53.346;-6.554;2022-11-04T03:13:21;100310.27;;;7.12;54.84
40372;BME280;28564;53.346;-6.554;2022-11-04T03:15:54;100307.87;;;7.06;54.88
40372;BME280;28564;53.346;-6.554;2022-11-04T03:18:29;100310.18;;;7.05;54.82
40372;BME280;28564;53.346;-6.554;2022-11-04T03:21:02;100316.71;;;7.03;54.93
40372;BME280;28564;53.346;-6.554;2022-11-04T03:23:32;100317.86;;;6.74;55.11
40372;BME280;28564;53.346;-6.554;2022-11-04T03:26:08;100313.01;;;7.01;55.45
40372;BME280;28564;53.346;-6.554;2022-11-04T03:28:43;100316.67;;;7.03;55.46
40372;BME280;28564;53.346;-6.554;2022-11-04T03:31:19;100323.30;;;7.04;55.21
40372;BME280;28564;53.346;-6.554;2022-11-04T03:33:50;100327.90;;;7.00;55.32
40372;BME280;28564;53.346;-6.554;2022-11-04T03:36:19;100328.21;;;7.01;55.34
40372;BME280;28564;53.346;-6.554;2022-11-04T03:38:48;100328.52;;;6.96;55.42
40372;BME280;28564;53.346;-6.554;2022-11-04T03:41:18;100325.55;;;6.95;55.36
40372;BME280;28564;53.346;-6.554;2022-11-04T03:43:49;100324.17;;;6.92;55.26
40372;BME280;28564;53.346;-6.554;2022-11-04T03:46:16;100333.14;;;6.86;55.25
40372;BME280;28564;53.346;-6.554;2022-11-04T03:48:43;100330.96;;;6.58;55.31
40372;BME280;28564;53.346;-6.554;2022-11-04T03:51:10;100334.79;;;7.04;55.28
40372;BME280;28564;53.346;-6.554;2022-11-04T03:53:38;100347.35;;;6.79;55.39
40372;BME280;28564;53.346;-6.554;2022-11-04T03:56:19;100351.35;;;6.51;55.44
40372;BME280;28564;53.346;-6.554;2022-11-04T03:58:57;100360.76;;;6.79;55.49
40372;BME280;28564;53.346;-6.554;2022-11-04T04:01:35;100371.86;;;6.81;55.32
40372;BME280;28564;53.346;-6.554;2022-11-04T04:04:15;100376.09;;;6.78;55.22
40372;BME280;28564;53.346;-6.554;2022-11-04T04:06:50;100381.52;;;6.76;55.29
40372;BME280;28564;53.346;-6.554;2022-11-04T04:09:22;100383.55;;;6.46;55.39
40372;BME280;28564;53.346;-6.554;2022-11-04T04:11:55;100382.37;;;6.70;55.41
40372;BME280;28564;53.346;-6.554;2022-11-04T04:14:30;100383.07;;;6.70;55.30
40372;BME280;28564;53.346;-6.554;2022-11-04T04:17:02;100388.29;;;6.69;55.40
40372;BME280;28564;53.346;-6.554;2022-11-04T04:19:33;100394.04;;;6.68;55.34
40372;BME280;28564;53.346;-6.554;2022-11-04T04:22:03;100399.02;;;6.69;55.31
40372;BME280;28564;53.346;-6.554;2022-11-04T04:24:35;100404.31;;;6.69;55.43
40372;BME280;28564;53.346;-6.554;2022-11-04T04:27:03;100411.60;;;6.69;55.50
40372;BME280;28564;53.346;-6.554;2022-11-04T04:29:31;100422.14;;;6.68;55.67
40372;BME280;28564;53.346;-6.554;2022-11-04T04:31:59;100427.31;;;6.69;55.59
40372;BME280;28564;53.346;-6.554;2022-11-04T04:34:31;100432.39;;;6.70;55.61
40372;BME280;28564;53.346;-6.554;2022-11-04T04:37:02;100441.36;;;6.71;55.58
40372;BME280;28564;53.346;-6.554;2022-11-04T04:39:35;100450.29;;;6.72;55.81
40372;BME280;28564;53.346;-6.554;2022-11-04T04:42:05;100447.81;;;6.67;55.82
40372;BME280;28564;53.346;-6.554;2022-11-04T04:44:33;100448.99;;;6.70;55.57
40372;BME280;28564;53.346;-6.554;2022-11-04T04:47:01;100447.76;;;6.67;55.57
40372;BME280;28564;53.346;-6.554;2022-11-04T04:49:28;100453.98;;;6.65;55.52
40372;BME280;28564;53.346;-6.554;2022-11-04T04:51:56;100465.50;;;6.65;55.45
40372;BME280;28564;53.346;-6.554;2022-11-04T04:54:23;100469.79;;;6.65;55.35
40372;BME280;28564;53.346;-6.554;2022-11-04T04:56:51;100474.88;;;6.63;55.46
40372;BME280;28564;53.346;-6.554;2022-11-04T04:59:18;100481.05;;;6.63;55.30
40372;BME280;28564;53.346;-6.554;2022-11-04T05:01:45;100486.43;;;6.59;55.28
40372;BME280;28564;53.346;-6.554;2022-11-04T05:04:13;100485.65;;;6.57;55.16
40372;BME280;28564;53.346;-6.554;2022-11-04T05:06:40;100490.36;;;7.03;55.17
40372;BME280;28564;53.346;-6.554;2022-11-04T05:09:07;100496.96;;;6.53;55.35
40372;BME280;28564;53.346;-6.554;2022-11-04T05:11:35;100504.84;;;6.54;55.36
40372;BME280;28564;53.346;-6.554;2022-11-04T05:14:02;100509.37;;;6.50;55.98
40372;BME280;28564;53.346;-6.554;2022-11-04T05:16:30;100521.44;;;6.54;56.31
40372;BME280;28564;53.346;-6.554;2022-11-04T05:18:57;100520.44;;;6.65;56.37
40372;BME280;28564;53.346;-6.554;2022-11-04T05:21:24;100523.92;;;6.75;56.49
40372;BME280;28564;53.346;-6.554;2022-11-04T05:23:52;100527.47;;;6.87;56.36
40372;BME280;28564;53.346;-6.554;2022-11-04T05:26:19;100530.91;;;6.99;56.37
40372;BME280;28564;53.346;-6.554;2022-11-04T05:28:46;100530.79;;;7.12;56.33
40372;BME280;28564;53.346;-6.554;2022-11-04T05:31:14;100538.86;;;6.96;56.27
40372;BME280;28564;53.346;-6.554;2022-11-04T05:33:41;100543.94;;;7.27;56.25
40372;BME280;28564;53.346;-6.554;2022-11-04T05:36:10;100549.69;;;7.29;56.25
40372;BME280;28564;53.346;-6.554;2022-11-04T05:38:38;100553.54;;;7.04;56.31
40372;BME280;28564;53.346;-6.554;2022-11-04T05:41:07;100557.58;;;7.12;56.29
40372;BME280;28564;53.346;-6.554;2022-11-04T05:43:36;100553.38;;;7.19;56.37
40372;BME280;28564;53.346;-6.554;2022-11-04T05:46:03;100549.51;;;7.23;56.39
40372;BME280;28564;53.346;-6.554;2022-11-04T05:48:30;100552.40;;;7.29;56.45
40372;BME280;28564;53.346;-6.554;2022-11-04T05:50:57;100563.54;;;7.30;56.39
40372;BME280;28564;53.346;-6.554;2022-11-04T05:53:25;100561.15;;;7.15;56.44
40372;BME280;28564;53.346;-6.554;2022-11-04T05:55:52;100564.26;;;7.40;56.61
40372;BME280;28564;53.346;-6.554;2022-11-04T05:58:20;100551.30;;;7.47;56.66
40372;BME280;28564;53.346;-6.554;2022-11-04T06:00:47;100559.74;;;7.51;56.65
40372;BME280;28564;53.346;-6.554;2022-11-04T06:03:14;100560.03;;;7.49;56.64
40372;BME280;28564;53.346;-6.554;2022-11-04T06:05:42;100565.44;;;7.27;56.63
40372;BME280;28564;53.346;-6.554;2022-11-04T06:08:09;100560.71;;;7.28;56.74
40372;BME280;28564;53.346;-6.554;2022-11-04T06:10:36;100564.24;;;7.33;56.78
40372;BME280;28564;53.346;-6.554;2022-11-04T06:13:04;100568.34;;;7.60;56.84
40372;BME280;28564;53.346;-6.554;2022-11-04T06:15:31;100568.29;;;7.67;56.86
40372;BME280;28564;53.346;-6.554;2022-11-04T06:17:58;100565.19;;;7.70;56.77
40372;BME280;28564;53.346;-6.554;2022-11-04T06:20:25;100569.70;;;7.77;56.86
40372;BME280;28564;53.346;-6.554;2022-11-04T06:22:53;100569.06;;;7.61;56.86
40372;BME280;28564;53.346;-6.554;2022-11-04T06:25:20;100566.45;;;7.41;56.67
40372;BME280;28564;53.346;-6.554;2022-11-04T06:27:48;100571.34;;;7.67;56.48
40372;BME280;28564;53.346;-6.554;2022-11-04T06:30:15;100570.24;;;7.63;56.33
40372;BME280;28564;53.346;-6.554;2022-11-04T06:32:42;100569.46;;;7.61;56.25
40372;BME280;28564;53.346;-6.554;2022-11-04T06:35:09;100567.81;;;7.77;56.29
40372;BME280;28564;53.346;-6.554;2022-11-04T06:37:36;100562.44;;;7.74;56.26
40372;BME280;28564;53.346;-6.554;2022-11-04T06:40:04;100560.76;;;7.48;56.14
40372;BME280;28564;53.346;-6.554;2022-11-04T06:42:31;100560.95;;;7.64;56.09
40372;BME280;28564;53.346;-6.554;2022-11-04T06:44:59;100564.07;;;7.57;55.97
40372;BME280;28564;53.346;-6.554;2022-11-04T06:47:26;100576.38;;;7.27;56.06
40372;BME280;28564;53.346;-6.554;2022-11-04T06:49:53;100578.95;;;7.29;56.17
40372;BME280;28564;53.346;-6.554;2022-11-04T06:52:20;100584.01;;;7.50;56.20
40372;BME280;28564;53.346;-6.554;2022-11-04T06:54:47;100598.55;;;7.46;56.39
40372;BME280;28564;53.346;-6.554;2022-11-04T06:57:15;100605.10;;;7.69;56.79
40372;BME280;28564;53.346;-6.554;2022-11-04T06:59:42;100608.07;;;7.42;56.47
40372;BME280;28564;53.346;-6.554;2022-11-04T07:02:09;100609.45;;;7.17;56.34
40372;BME280;28564;53.346;-6.554;2022-11-04T07:04:37;100612.23;;;7.11;56.11
40372;BME280;28564;53.346;-6.554;2022-11-04T07:07:04;100615.44;;;7.29;55.99
40372;BME280;28564;53.346;-6.554;2022-11-04T07:09:32;100614.85;;;7.28;56.07
40372;BME280;28564;53.346;-6.554;2022-11-04T07:11:59;100609.01;;;7.53;56.07
40372;BME280;28564;53.346;-6.554;2022-11-04T07:14:27;100607.42;;;7.25;56.10
40372;BME280;28564;53.346;-6.554;2022-11-04T07:16:54;100613.29;;;7.08;56.32
40372;BME280;28564;53.346;-6.554;2022-11-04T07:19:21;100616.20;;;7.11;56.34
40372;BME280;28564;53.346;-6.554;2022-11-04T07:21:48;100618.24;;;7.32;56.51
40372;BME280;28564;53.346;-6.554;2022-11-04T07:24:16;100617.95;;;7.09;56.54
40372;BME280;28564;53.346;-6.554;2022-11-04T07:26:43;100629.07;;;7.33;56.37
40372;BME280;28564;53.346;-6.554;2022-11-04T07:29:10;100633.13;;;7.61;56.28
40372;BME280;28564;53.346;-6.554;2022-11-04T07:31:38;100637.65;;;7.35;56.35
40372;BME280;28564;53.346;-6.554;2022-11-04T07:34:05;100640.69;;;7.36;56.28
40372;BME280;28564;53.346;-6.554;2022-11-04T07:36:33;100649.49;;;7.34;56.07
40372;BME280;28564;53.346;-6.554;2022-11-04T07:39:00;100657.94;;;7.11;55.89
40372;BME280;28564;53.346;-6.554;2022-11-04T07:41:28;100664.49;;;7.33;55.91
40372;BME280;28564;53.346;-6.554;2022-11-04T07:43:55;100668.66;;;7.65;56.02
40372;BME280;28564;53.346;-6.554;2022-11-04T07:46:23;100671.17;;;7.17;55.80
40372;BME280;28564;53.346;-6.554;2022-11-04T07:48:50;100672.95;;;7.69;55.93
40372;BME280;28564;53.346;-6.554;2022-11-04T07:51:19;100673.93;;;7.51;56.29
40372;BME280;28564;53.346;-6.554;2022-11-04T07:53:46;100677.33;;;7.84;56.03
40372;BME280;28564;53.346;-6.554;2022-11-04T07:56:14;100681.53;;;7.70;56.13
40372;BME280;28564;53.346;-6.554;2022-11-04T07:58:42;100684.86;;;7.80;56.09
40372;BME280;28564;53.346;-6.554;2022-11-04T08:01:10;100690.30;;;7.90;56.22
40372;BME280;28564;53.346;-6.554;2022-11-04T08:03:39;100689.63;;;7.80;56.62
40372;BME280;28564;53.346;-6.554;2022-11-04T08:06:08;100696.70;;;7.99;56.44
40372;BME280;28564;53.346;-6.554;2022-11-04T08:08:35;100698.11;;;8.19;56.39
40372;BME280;28564;53.346;-6.554;2022-11-04T08:11:04;100702.88;;;8.15;56.28
40372;BME280;28564;53.346;-6.554;2022-11-04T08:13:34;100705.28;;;8.45;56.29
40372;BME280;28564;53.346;-6.554;2022-11-04T08:16:02;100707.08;;;8.16;55.83
40372;BME280;28564;53.346;-6.554;2022-11-04T08:18:30;100704.42;;;8.37;55.96
40372;BME280;28564;53.346;-6.554;2022-11-04T08:20:58;100699.25;;;8.35;55.64
40372;BME280;28564;53.346;-6.554;2022-11-04T08:23:25;100701.42;;;8.32;55.74
40372;BME280;28564;53.346;-6.554;2022-11-04T08:25:52;100719.25;;;8.03;55.88
40372;BME280;28564;53.346;-6.554;2022-11-04T08:28:19;100731.69;;;7.98;55.90
40372;BME280;28564;53.346;-6.554;2022-11-04T08:30:56;100735.25;;;8.22;55.96
40372;BME280;28564;53.346;-6.554;2022-11-04T08:33:23;100738.08;;;8.28;55.92
40372;BME280;28564;53.346;-6.554;2022-11-04T08:35:51;100733.22;;;8.34;56.08
40372;BME280;28564;53.346;-6.554;2022-11-04T08:38:19;100733.95;;;8.16;55.93
40372;BME280;28564;53.346;-6.554;2022-11-04T08:40:47;100735.07;;;8.37;56.10
40372;BME280;28564;53.346;-6.554;2022-11-04T08:43:14;100730.31;;;8.43;56.00
40372;BME280;28564;53.346;-6.554;2022-11-04T08:45:43;100738.26;;;8.48;56.06
40372;BME280;28564;53.346;-6.554;2022-11-04T08:48:11;100737.53;;;8.52;56.09
40372;BME280;28564;53.346;-6.554;2022-11-04T08:50:39;100732.54;;;8.36;56.10
40372;BME280;28564;53.346;-6.554;2022-11-04T08:53:07;100731.77;;;8.63;56.16
40372;BME280;28564;53.346;-6.554;2022-11-04T08:55:34;100725.27;;;8.19;56.19
40372;BME280;28564;53.346;-6.554;2022-11-04T08:58:01;100734.73;;;8.26;56.14
40372;BME280;28564;53.346;-6.554;2022-11-04T09:00:28;100736.77;;;8.83;56.07
40372;BME280;28564;53.346;-6.554;2022-11-04T09:02:56;100750.86;;;8.57;56.25
40372;BME280;28564;53.346;-6.554;2022-11-04T09:05:24;100756.81;;;8.36;56.23
40372;BME280;28564;53.346;-6.554;2022-11-04T09:07:52;100750.93;;;8.69;56.26
40372;BME280;28564;53.346;-6.554;2022-11-04T09:10:20;100750.91;;;8.72;56.26
40372;BME280;28564;53.346;-6.554;2022-11-04T09:12:47;100749.13;;;8.53;56.30
40372;BME280;28564;53.346;-6.554;2022-11-04T09:15:15;100757.15;;;8.91;56.25
40372;BME280;28564;53.346;-6.554;2022-11-04T09:17:42;100766.47;;;8.99;56.41
40372;BME280;28564;53.346;-6.554;2022-11-04T09:20:09;100762.55;;;8.61;56.39
40372;BME280;28564;53.346;-6.554;2022-11-04T09:22:37;100761.56;;;8.93;56.44
40372;BME280;28564;53.346;-6.554;2022-11-04T09:25:05;100770.06;;;9.03;56.47
40372;BME280;28564;53.346;-6.554;2022-11-04T09:27:32;100776.54;;;9.20;56.48
40372;BME280;28564;53.346;-6.554;2022-11-04T09:30:00;100774.28;;;9.34;56.48
40372;BME280;28564;53.346;-6.554;2022-11-04T09:32:28;100774.60;;;9.45;56.45
40372;BME280;28564;53.346;-6.554;2022-11-04T09:34:55;100774.44;;;9.44;56.22
40372;BME280;28564;53.346;-6.554;2022-11-04T09:37:23;100782.19;;;9.60;55.96
40372;BME280;28564;53.346;-6.554;2022-11-04T09:39:50;100780.79;;;9.73;55.93
40372;BME280;28564;53.346;-6.554;2022-11-04T09:42:32;100779.23;;;9.98;55.76
40372;BME280;28564;53.346;-6.554;2022-11-04T09:45:10;100776.15;;;10.24;55.40
40372;BME280;28564;53.346;-6.554;2022-11-04T09:47:39;100768.45;;;10.22;55.04
40372;BME280;28564;53.346;-6.554;2022-11-04T09:50:15;100767.36;;;10.64;54.73
40372;BME280;28564;53.346;-6.554;2022-11-04T09:52:49;100758.20;;;10.96;54.22
40372;BME280;28564;53.346;-6.554;2022-11-04T09:55:25;100754.92;;;11.01;53.37
40372;BME280;28564;53.346;-6.554;2022-11-04T09:57:56;100754.76;;;11.26;52.72
40372;BME280;28564;53.346;-6.554;2022-11-04T10:00:25;100754.09;;;11.24;52.11
40372;BME280;28564;53.346;-6.554;2022-11-04T10:03:05;100760.23;;;11.97;52.37
40372;BME280;28564;53.346;-6.554;2022-11-04T10:05:50;100760.03;;;11.60;51.81
40372;BME280;28564;53.346;-6.554;2022-11-04T10:08:32;100764.39;;;11.70;51.21
40372;BME280;28564;53.346;-6.554;2022-11-04T10:11:09;100773.81;;;11.70;51.12
40372;BME280;28564;53.346;-6.554;2022-11-04T10:13:50;100772.80;;;11.62;51.29
40372;BME280;28564;53.346;-6.554;2022-11-04T10:16:33;100774.09;;;11.49;51.15
40372;BME280;28564;53.346;-6.554;2022-11-04T10:19:15;100771.18;;;11.37;51.07
40372;BME280;28564;53.346;-6.554;2022-11-04T10:21:48;100772.17;;;11.47;51.56
40372;BME280;28564;53.346;-6.554;2022-11-04T10:24:22;100774.66;;;11.54;51.00
40372;BME280;28564;53.346;-6.554;2022-11-04T10:26:55;100776.26;;;11.98;50.89
40372;BME280;28564;53.346;-6.554;2022-11-04T10:29:29;100784.85;;;11.78;50.52
40372;BME280;28564;53.346;-6.554;2022-11-04T10:32:02;100779.64;;;12.16;50.17
40372;BME280;28564;53.346;-6.554;2022-11-04T10:34:35;100772.06;;;12.26;49.35
40372;BME280;28564;53.346;-6.554;2022-11-04T10:37:08;100773.13;;;12.56;49.58
40372;BME280;28564;53.346;-6.554;2022-11-04T10:39:40;100771.31;;;12.59;49.33
40372;BME280;28564;53.346;-6.554;2022-11-04T10:42:10;100774.05;;;12.62;48.99
40372;BME280;28564;53.346;-6.554;2022-11-04T10:44:38;100780.19;;;12.68;48.82
40372;BME280;28564;53.346;-6.554;2022-11-04T10:47:14;100791.73;;;13.03;48.41
40372;BME280;28564;53.346;-6.554;2022-11-04T10:49:55;100788.07;;;13.42;47.90
40372;BME280;28564;53.346;-6.554;2022-11-04T10:52:24;100791.75;;;13.62;47.29
40372;BME280;28564;53.346;-6.554;2022-11-04T10:54:51;100792.89;;;13.75;47.25
40372;BME280;28564;53.346;-6.554;2022-11-04T10:57:20;100793.91;;;13.62;46.94
40372;BME280;28564;53.346;-6.554;2022-11-04T10:59:52;100781.87;;;14.10;47.04
40372;BME280;28564;53.346;-6.554;2022-11-04T11:02:42;100781.12;;;13.89;45.86
40372;BME280;28564;53.346;-6.554;2022-11-04T11:05:13;100775.91;;;13.86;46.40
40372;BME280;28564;53.346;-6.554;2022-11-04T11:07:42;100778.80;;;13.79;46.06
40372;BME280;28564;53.346;-6.554;2022-11-04T11:10:17;100786.47;;;14.35;46.16
40372;BME280;28564;53.346;-6.554;2022-11-04T11:12:51;100785.65;;;13.94;45.84
40372;BME280;28564;53.346;-6.554;2022-11-04T11:15:28;100779.62;;;14.05;45.50
40372;BME280;28564;53.346;-6.554;2022-11-04T11:18:00;100776.85;;;14.11;45.24
40372;BME280;28564;53.346;-6.554;2022-11-04T11:20:29;100775.77;;;14.10;45.04
40372;BME280;28564;53.346;-6.554;2022-11-04T11:22:56;100773.73;;;14.02;44.78
40372;BME280;28564;53.346;-6.554;2022-11-04T11:25:26;100776.62;;;14.06;44.91
40372;BME280;28564;53.346;-6.554;2022-11-04T11:27:57;100776.46;;;14.12;44.71
40372;BME280;28564;53.346;-6.554;2022-11-04T11:30:28;100789.74;;;14.11;45.54
40372;BME280;28564;53.346;-6.554;2022-11-04T11:32:59;100793.96;;;14.07;45.62
40372;BME280;28564;53.346;-6.554;2022-11-04T11:35:30;100789.68;;;14.04;44.95
40372;BME280;28564;53.346;-6.554;2022-11-04T11:38:00;100789.66;;;14.22;45.89
40372;BME280;28564;53.346;-6.554;2022-11-04T11:40:29;100787.59;;;14.42;45.25
40372;BME280;28564;53.346;-6.554;2022-11-04T11:42:58;100781.84;;;14.73;45.61
40372;BME280;28564;53.346;-6.554;2022-11-04T11:45:26;100779.05;;;15.09;45.73
40372;BME280;28564;53.346;-6.554;2022-11-04T11:47:55;100780.07;;;14.95;44.01
40372;BME280;28564;53.346;-6.554;2022-11-04T11:50:24;100782.02;;;14.96;43.36
40372;BME280;28564;53.346;-6.554;2022-11-04T11:52:52;100789.05;;;14.93;42.92
40372;BME280;28564;53.346;-6.554;2022-11-04T11:55:22;100798.70;;;14.85;42.95
40372;BME280;28564;53.346;-6.554;2022-11-04T11:57:59;100792.23;;;14.78;43.16
40372;BME280;28564;53.346;-6.554;2022-11-04T12:00:30;100784.13;;;14.99;42.91
40372;BME280;28564;53.346;-6.554;2022-11-04T12:03:01;100778.70;;;15.26;43.14
40372;BME280;28564;53.346;-6.554;2022-11-04T12:05:35;100773.99;;;15.65;43.09
40372;BME280;28564;53.346;-6.554;2022-11-04T12:08:19;100777.10;;;16.16;42.29
40372;BME280;28564;53.346;-6.554;2022-11-04T12:10:57;100779.60;;;16.59;41.32
40372;BME280;28564;53.346;-6.554;2022-11-04T12:13:27;100790.21;;;16.66;40.46
40372;BME280;28564;53.346;-6.554;2022-11-04T12:16:14;100793.52;;;16.57;39.46
40372;BME280;28564;53.346;-6.554;2022-11-04T12:18:55;100787.45;;;16.14;39.83
40372;BME280;28564;53.346;-6.554;2022-11-04T12:21:28;100787.10;;;16.08;40.31
40372;BME280;28564;53.346;-6.554;2022-11-04T12:24:02;100777.29;;;16.44;40.43
40372;BME280;28564;53.346;-6.554;2022-11-04T12:26:38;100771.63;;;16.26;40.26
40372;BME280;28564;53.346;-6.554;2022-11-04T12:29:17;100768.02;;;16.30;40.58
40372;BME280;28564;53.346;-6.554;2022-11-04T12:31:56;100761.58;;;16.21;39.92
40372;BME280;28564;53.346;-6.554;2022-11-04T12:34:36;100762.92;;;16.23;40.55
40372;BME280;28564;53.346;-6.554;2022-11-04T12:37:17;100762.93;;;16.04;40.98
40372;BME280;28564;53.346;-6.554;2022-11-04T12:39:55;100760.88;;;15.99;41.62
40372;BME280;28564;53.346;-6.554;2022-11-04T12:42:33;100762.35;;;16.30;40.97
40372;BME280;28564;53.346;-6.554;2022-11-04T12:45:16;100761.57;;;16.43;40.40
40372;BME280;28564;53.346;-6.554;2022-11-04T12:47:46;100764.33;;;17.17;39.26
40372;BME280;28564;53.346;-6.554;2022-11-04T12:50:37;100758.16;;;18.58;37.62
40372;BME280;28564;53.346;-6.554;2022-11-04T12:53:18;100749.02;;;18.06;38.15
40372;BME280;28564;53.346;-6.554;2022-11-04T12:55:54;100744.08;;;17.63;38.44
40372;BME280;28564;53.346;-6.554;2022-11-04T12:58:36;100750.43;;;17.16;38.77
40372;BME280;28564;53.346;-6.554;2022-11-04T13:01:13;100755.55;;;16.99;39.76
40372;BME280;28564;53.346;-6.554;2022-11-04T13:03:48;100758.96;;;16.67;39.78
40372;BME280;28564;53.346;-6.554;2022-11-04T13:06:22;100758.30;;;16.70;40.11